Time;durP1;ratioP1;P1;durP2;ratioP2;P2;SDS_P1;SDS_P2;PMS_P1;PMS_P2;Temp;Humidity;BMP_temperature;BMP_pressure;BME280_temperature;BME280_humidity;BME280_pressure;Samples;Min_cycle;Max_cycle;Signal;HPM_P1;HPM_P2
2021/08/02 00:00:26;;;;;;;2.15;1.90;;;16.70;99.90;;;;;;3594265;40;20234;-82
2021/08/02 00:03:02;;;;;;;3.40;2.15;;;16.50;99.90;;;;;;3585830;40;20251;-81
2021/08/02 00:05:36;;;;;;;4.18;2.33;;;16.40;99.90;;;;;;3585741;40;20246;-82
2021/08/02 00:08:04;;;;;;;2.80;1.92;;;16.20;99.90;;;;;;3594112;40;20711;-80
2021/08/02 00:10:34;;;;;;;2.70;2.03;;;16.00;99.90;;;;;;3594109;40;20246;-81
2021/08/02 00:13:06;;;;;;;5.28;1.92;;;15.80;99.90;;;;;;3594029;40;20215;-82
2021/08/02 00:15:33;;;;;;;3.03;2.38;;;15.70;99.90;;;;;;3602664;39;20249;-82
2021/08/02 00:18:00;;;;;;;2.42;2.20;;;15.60;99.90;;;;;;3597158;39;20226;-81
2021/08/02 00:20:32;;;;;;;3.63;2.03;;;15.70;99.90;;;;;;3604131;39;20226;-83
2021/08/02 00:23:00;;;;;;;3.78;2.33;;;15.70;99.90;;;;;;3604215;39;20225;-80
2021/08/02 00:25:28;;;;;;;3.65;2.67;;;15.60;99.90;;;;;;3604009;39;20241;-82
2021/08/02 00:27:57;;;;;;;2.50;2.30;;;15.80;99.90;;;;;;3603579;39;20217;-82
2021/08/02 00:30:25;;;;;;;3.22;2.17;;;15.80;99.90;;;;;;3612821;39;20237;-81
2021/08/02 00:32:52;;;;;;;3.00;2.70;;;15.70;99.90;;;;;;3612245;39;20234;-81
2021/08/02 00:35:20;;;;;;;3.92;2.60;;;15.60;99.90;;;;;;3603978;39;20343;-82
2021/08/02 00:38:05;;;;;;;2.25;2.05;;;15.60;99.90;;;;;;3612690;39;20270;-83
2021/08/02 00:41:09;;;;;;;2.47;2.22;;;15.50;99.90;;;;;;3612694;39;20279;-81
2021/08/02 00:44:10;;;;;;;3.35;2.67;;;15.40;99.90;;;;;;3610581;39;20649;-82
2021/08/02 00:46:41;;;;;;;5.20;2.08;;;15.30;99.90;;;;;;3603801;39;20818;-81
2021/08/02 00:49:13;;;;;;;3.25;2.70;;;15.40;99.90;;;;;;3612585;39;20246;-80
2021/08/02 00:51:49;;;;;;;5.25;2.50;;;15.30;99.90;;;;;;3612622;39;20233;-81
2021/08/02 00:54:20;;;;;;;3.30;2.05;;;15.10;99.90;;;;;;3604026;39;20278;-81
2021/08/02 00:56:48;;;;;;;6.03;2.40;;;14.90;99.90;;;;;;3612238;39;20226;-82
2021/08/02 00:59:17;;;;;;;3.08;2.78;;;15.00;99.90;;;;;;3612176;39;20780;-82
2021/08/02 01:01:45;;;;;;;4.70;2.45;;;15.00;99.90;;;;;;3603444;39;20238;-83
2021/08/02 01:04:14;;;;;;;2.55;2.38;;;15.30;99.90;;;;;;3595524;39;20241;-82
2021/08/02 01:06:45;;;;;;;2.58;2.38;;;15.30;99.90;;;;;;3612377;39;20246;-80
2021/08/02 01:09:16;;;;;;;3.10;2.63;;;15.40;99.90;;;;;;3603688;39;20249;-82
2021/08/02 01:11:45;;;;;;;7.57;3.42;;;15.50;99.90;;;;;;3595383;39;20441;-80
2021/08/02 01:14:15;;;;;;;4.65;3.15;;;15.50;99.90;;;;;;3612469;39;20229;-82
2021/08/02 01:16:45;;;;;;;2.60;2.20;;;15.30;99.90;;;;;;3609335;39;20246;-83
2021/08/02 01:19:13;;;;;;;2.67;2.38;;;15.40;99.90;;;;;;3612322;39;20237;-81
2021/08/02 01:21:44;;;;;;;2.63;2.45;;;15.30;99.90;;;;;;3603676;39;20236;-81
2021/08/02 01:24:15;;;;;;;5.68;2.78;;;15.40;99.90;;;;;;3603723;39;20214;-81
2021/08/02 01:27:18;;;;;;;5.10;2.53;;;15.40;99.90;;;;;;3603419;39;20226;-81
2021/08/02 01:30:15;;;;;;;3.53;2.42;;;15.30;99.90;;;;;;3603600;39;20276;-85
2021/08/02 01:32:45;;;;;;;3.80;2.25;;;15.30;99.90;;;;;;3612017;39;20222;-82
2021/08/02 01:35:13;;;;;;;4.55;3.05;;;15.30;99.90;;;;;;3612218;39;20245;-83
2021/08/02 01:37:42;;;;;;;4.22;2.38;;;15.30;99.90;;;;;;3595153;39;20198;-81
2021/08/02 01:40:12;;;;;;;3.20;2.10;;;15.10;99.90;;;;;;3603361;39;20263;-81
2021/08/02 01:42:40;;;;;;;3.70;2.70;;;15.20;99.90;;;;;;3603538;39;20842;-82
2021/08/02 01:45:13;;;;;;;2.45;2.25;;;15.20;99.90;;;;;;3595176;39;20237;-81
2021/08/02 01:47:55;;;;;;;2.95;2.63;;;15.30;99.90;;;;;;3612106;39;20295;-82
2021/08/02 01:50:41;;;;;;;3.30;2.45;;;15.30;99.90;;;;;;3603432;39;20277;-82
2021/08/02 01:53:19;;;;;;;4.38;3.08;;;15.30;99.90;;;;;;3603518;39;20937;-82
2021/08/02 01:55:56;;;;;;;5.30;2.70;;;15.10;99.90;;;;;;3603423;39;20318;-80
2021/08/02 01:58:27;;;;;;;4.13;2.58;;;15.10;99.90;;;;;;3603340;39;20291;-81
2021/08/02 02:00:59;;;;;;;4.05;2.90;;;14.90;99.90;;;;;;3611731;39;20364;-81
2021/08/02 02:03:31;;;;;;;7.40;3.35;;;15.10;99.90;;;;;;3603370;39;20233;-81
2021/08/02 02:06:10;;;;;;;5.30;3.03;;;15.10;99.90;;;;;;3602896;39;20237;-82
2021/08/02 02:08:42;;;;;;;11.82;3.00;;;15.10;99.90;;;;;;3604167;39;20233;-82
2021/08/02 02:11:25;;;;;;;5.35;3.58;;;14.80;99.90;;;;;;3604682;39;20877;-80
2021/08/02 02:14:02;;;;;;;3.75;3.40;;;14.90;99.90;;;;;;3604973;39;20730;-84
2021/08/02 02:16:31;;;;;;;2.88;2.55;;;14.90;99.90;;;;;;3604803;39;20257;-81
2021/08/02 02:19:04;;;;;;;4.80;2.75;;;14.80;99.90;;;;;;3604370;39;20242;-81
2021/08/02 02:21:33;;;;;;;7.80;2.97;;;14.70;99.90;;;;;;3613648;39;20225;-80
2021/08/02 02:24:05;;;;;;;3.67;3.08;;;14.70;99.90;;;;;;3613534;39;20246;-80
2021/08/02 02:26:37;;;;;;;4.45;2.88;;;14.70;99.90;;;;;;3604833;39;20238;-80
2021/08/02 02:29:11;;;;;;;3.45;3.15;;;14.70;99.90;;;;;;3604893;39;20302;-84
2021/08/02 02:31:40;;;;;;;4.60;2.88;;;14.70;99.90;;;;;;3596434;39;20265;-80
2021/08/02 02:34:11;;;;;;;7.32;3.45;;;14.70;99.90;;;;;;3613193;39;20709;-80
2021/08/02 02:36:41;;;;;;;6.45;3.33;;;14.70;99.90;;;;;;3604585;39;20268;-82
2021/08/02 02:39:11;;;;;;;4.35;2.92;;;14.80;99.90;;;;;;3603647;39;20920;-81
2021/08/02 02:41:44;;;;;;;4.80;2.97;;;14.60;99.90;;;;;;3612991;39;20253;-80
2021/08/02 02:44:12;;;;;;;5.70;3.22;;;14.70;99.90;;;;;;3604387;39;20234;-80
2021/08/02 02:46:39;;;;;;;6.03;3.50;;;14.50;99.90;;;;;;3613325;39;20277;-83
2021/08/02 02:49:09;;;;;;;6.35;2.70;;;14.50;99.90;;;;;;3613269;39;20287;-81
2021/08/02 02:51:39;;;;;;;6.15;2.95;;;14.30;99.90;;;;;;3604189;39;20234;-81
2021/08/02 02:54:07;;;;;;;5.93;2.72;;;14.20;99.90;;;;;;3604703;39;20294;-81
2021/08/02 02:56:36;;;;;;;3.38;3.08;;;14.20;99.90;;;;;;3613259;39;20287;-82
2021/08/02 02:59:05;;;;;;;4.80;2.75;;;14.20;99.90;;;;;;3613279;39;20206;-80
2021/08/02 03:01:38;;;;;;;4.00;3.10;;;14.20;99.90;;;;;;3613391;39;20229;-80
2021/08/02 03:04:09;;;;;;;5.78;3.28;;;14.10;99.90;;;;;;3604291;39;20250;-80
2021/08/02 03:06:37;;;;;;;4.93;3.22;;;14.10;99.90;;;;;;3604400;39;20878;-81
2021/08/02 03:09:06;;;;;;;7.53;3.63;;;14.20;99.90;;;;;;3612611;39;20252;-79
2021/08/02 03:11:36;;;;;;;7.30;3.53;;;14.10;99.90;;;;;;3604534;39;20229;-80
2021/08/02 03:14:06;;;;;;;9.27;3.45;;;14.00;99.90;;;;;;3596151;39;20257;-80
2021/08/02 03:16:33;;;;;;;7.60;2.30;;;13.80;99.90;;;;;;3604263;39;20251;-81
2021/08/02 03:19:00;;;;;;;8.27;3.20;;;13.70;99.90;;;;;;3612596;39;20241;-80
2021/08/02 03:21:28;;;;;;;3.55;3.17;;;13.60;99.90;;;;;;3612553;39;20743;-80
2021/08/02 03:24:06;;;;;;;9.48;4.28;;;13.60;99.90;;;;;;3613072;39;20283;-80
2021/08/02 03:26:37;;;;;;;4.30;3.05;;;13.80;99.90;;;;;;3602733;40;20811;-80
2021/08/02 03:29:12;;;;;;;5.25;3.67;;;13.60;99.90;;;;;;3594235;40;20253;-80
2021/08/02 03:31:46;;;;;;;4.82;3.40;;;13.80;99.90;;;;;;3594324;40;20253;-81
2021/08/02 03:34:24;;;;;;;4.20;2.75;;;13.60;99.90;;;;;;3594317;40;20214;-79
2021/08/02 03:36:53;;;;;;;5.45;3.63;;;13.70;99.90;;;;;;3594213;40;20296;-80
2021/08/02 03:39:23;;;;;;;6.10;3.17;;;13.70;99.90;;;;;;3602923;40;20223;-81
2021/08/02 03:41:52;;;;;;;6.63;3.08;;;13.60;99.90;;;;;;3602855;40;20722;-80
2021/08/02 03:44:22;;;;;;;6.75;3.13;;;13.70;99.90;;;;;;3602876;40;20257;-80
2021/08/02 03:46:49;;;;;;;6.20;3.17;;;13.70;99.90;;;;;;3602734;40;20248;-84
2021/08/02 03:49:16;;;;;;;4.10;2.53;;;13.80;99.90;;;;;;3602807;40;20872;-82
2021/08/02 03:51:47;;;;;;;6.93;3.22;;;13.70;99.90;;;;;;3602783;40;20288;-80
2021/08/02 03:54:16;;;;;;;4.45;3.25;;;13.60;99.90;;;;;;3594266;40;20234;-83
2021/08/02 03:56:45;;;;;;;4.03;3.55;;;13.50;99.90;;;;;;3602635;40;20257;-81
2021/08/02 03:59:12;;;;;;;4.18;3.38;;;13.50;99.90;;;;;;3602435;40;20238;-81
2021/08/02 04:01:41;;;;;;;9.32;3.17;;;13.50;99.90;;;;;;3602745;40;20292;-81
2021/08/02 04:04:09;;;;;;;3.22;2.90;;;13.50;99.90;;;;;;3602767;40;20214;-81
2021/08/02 04:06:37;;;;;;;6.85;4.05;;;13.50;99.90;;;;;;3602614;40;20246;-81
2021/08/02 04:09:06;;;;;;;5.72;3.90;;;13.50;99.90;;;;;;3606128;39;20303;-81
2021/08/02 04:11:33;;;;;;;8.95;3.72;;;13.50;99.90;;;;;;3612824;39;20286;-80
2021/08/02 04:14:00;;;;;;;6.72;4.45;;;13.30;99.90;;;;;;3612761;39;20238;-79
2021/08/02 04:16:29;;;;;;;8.20;4.38;;;13.40;99.90;;;;;;3612662;39;20226;-81
2021/08/02 04:18:57;;;;;;;8.32;4.20;;;13.40;99.90;;;;;;3611327;39;20245;-81
2021/08/02 04:21:25;;;;;;;5.65;3.75;;;13.40;99.90;;;;;;3603693;39;20205;-80
2021/08/02 04:23:54;;;;;;;4.32;3.60;;;13.50;99.90;;;;;;3604033;39;20237;-79
2021/08/02 04:26:21;;;;;;;4.03;3.47;;;13.30;99.90;;;;;;3603858;39;20304;-80
2021/08/02 04:28:49;;;;;;;5.43;3.60;;;13.40;99.90;;;;;;3604031;39;20262;-82
2021/08/02 04:31:16;;;;;;;4.43;2.78;;;13.40;99.90;;;;;;3603564;39;20241;-80
2021/08/02 04:33:44;;;;;;;4.78;2.72;;;13.50;99.90;;;;;;3612768;39;20225;-80
2021/08/02 04:36:12;;;;;;;4.63;3.47;;;13.50;99.90;;;;;;3612555;39;20229;-80
2021/08/02 04:38:40;;;;;;;4.47;2.33;;;13.50;99.90;;;;;;3612748;39;20206;-80
2021/08/02 04:41:07;;;;;;;4.22;2.65;;;13.50;99.90;;;;;;3610755;39;20210;-80
2021/08/02 04:43:35;;;;;;;5.40;2.70;;;13.50;99.90;;;;;;3612577;39;20232;-83
2021/08/02 04:46:06;;;;;;;1.90;1.63;;;13.70;99.90;;;;;;3612464;39;20421;-80
2021/08/02 04:48:33;;;;;;;2.42;2.22;;;13.60;99.90;;;;;;3612566;39;20218;-80
2021/08/02 04:51:00;;;;;;;3.47;2.00;;;13.70;99.90;;;;;;3603924;39;20261;-80
2021/08/02 04:53:28;;;;;;;5.35;2.20;;;13.70;99.90;;;;;;3603846;39;20842;-81
2021/08/02 04:55:56;;;;;;;4.72;2.60;;;13.70;99.90;;;;;;3612395;39;20256;-80
2021/08/02 04:58:23;;;;;;;4.45;2.00;;;13.60;99.90;;;;;;3603702;39;20241;-81
2021/08/02 05:00:50;;;;;;;4.43;2.10;;;13.60;99.90;;;;;;3612158;39;20246;-80
2021/08/02 05:03:17;;;;;;;3.33;2.13;;;13.70;99.90;;;;;;3603757;39;20249;-79
2021/08/02 05:05:44;;;;;;;4.05;2.35;;;13.70;99.90;;;;;;3612529;39;20277;-83
2021/08/02 05:08:11;;;;;;;3.85;2.17;;;13.70;99.90;;;;;;3612341;39;20234;-79
2021/08/02 05:10:39;;;;;;;4.07;2.25;;;13.80;99.90;;;;;;3611891;39;20303;-79
2021/08/02 05:13:06;;;;;;;3.30;2.03;;;13.90;99.90;;;;;;3612492;39;20866;-81
2021/08/02 05:15:34;;;;;;;2.88;1.73;;;14.00;99.90;;;;;;3603516;39;20253;-82
2021/08/02 05:18:01;;;;;;;4.13;2.00;;;14.00;99.90;;;;;;3612016;39;20278;-80
2021/08/02 05:20:28;;;;;;;8.57;3.00;;;14.10;99.90;;;;;;3612278;39;20767;-81
2021/08/02 05:22:55;;;;;;;4.53;1.60;;;14.30;99.90;;;;;;3612409;39;20198;-80
2021/08/02 05:25:22;;;;;;;2.17;1.70;;;14.40;99.90;;;;;;3612179;39;20249;-81
2021/08/02 05:27:52;;;;;;;3.67;2.35;;;14.50;99.90;;;;;;3595132;39;20237;-80
2021/08/02 05:30:20;;;;;;;3.42;1.80;;;14.60;99.90;;;;;;3612048;39;20780;-79
2021/08/02 05:32:47;;;;;;;4.40;2.03;;;14.60;99.90;;;;;;3612284;39;20222;-80
2021/08/02 05:35:14;;;;;;;4.05;1.80;;;14.60;99.90;;;;;;3611891;39;20241;-80
2021/08/02 05:37:42;;;;;;;3.08;1.90;;;14.60;99.90;;;;;;3611901;39;20732;-80
2021/08/02 05:40:10;;;;;;;3.90;2.28;;;14.80;99.90;;;;;;3603447;39;20241;-82
2021/08/02 05:42:38;;;;;;;3.28;1.60;;;14.80;99.90;;;;;;3612280;39;20225;-81
2021/08/02 05:45:08;;;;;;;6.47;1.95;;;14.90;99.90;;;;;;3612635;39;20233;-80
2021/08/02 05:47:36;;;;;;;2.20;2.00;;;15.00;99.90;;;;;;3612075;39;20233;-80
2021/08/02 05:50:03;;;;;;;5.53;2.38;;;15.00;99.90;;;;;;3596240;39;20242;-79
2021/08/02 05:52:30;;;;;;;4.70;1.85;;;15.00;99.90;;;;;;3613306;39;20516;-83
2021/08/02 05:54:58;;;;;;;7.43;1.98;;;15.20;99.90;;;;;;3604616;39;20287;-80
2021/08/02 05:57:25;;;;;;;3.90;2.38;;;15.10;99.90;;;;;;3613466;39;20226;-79
2021/08/02 05:59:52;;;;;;;3.03;2.20;;;15.20;99.90;;;;;;3613644;39;20279;-81
2021/08/02 06:02:20;;;;;;;4.95;2.03;;;15.40;99.90;;;;;;3613671;39;20245;-81
2021/08/02 06:04:48;;;;;;;5.43;1.83;;;15.50;99.90;;;;;;3613500;39;20300;-81
2021/08/02 06:07:15;;;;;;;3.13;2.08;;;15.30;99.90;;;;;;3604841;39;20254;-81
2021/08/02 06:09:42;;;;;;;6.38;2.42;;;15.30;99.90;;;;;;3613587;39;20302;-81
2021/08/02 06:12:10;;;;;;;2.70;2.00;;;15.30;99.90;;;;;;3613579;39;20234;-79
2021/08/02 06:14:37;;;;;;;4.68;2.42;;;15.40;99.90;;;;;;3613483;39;20238;-79
2021/08/02 06:17:05;;;;;;;5.03;1.92;;;15.50;99.90;;;;;;3613440;39;20287;-80
2021/08/02 06:19:33;;;;;;;3.88;1.88;;;15.60;99.90;;;;;;3604829;39;20222;-79
2021/08/02 06:22:00;;;;;;;6.10;2.58;;;15.80;99.90;;;;;;3613553;39;20253;-80
2021/08/02 06:24:27;;;;;;;3.33;1.85;;;16.00;99.90;;;;;;3613380;39;20703;-79
2021/08/02 06:26:54;;;;;;;5.60;2.92;;;15.80;99.90;;;;;;3613472;39;20238;-81
2021/08/02 06:29:21;;;;;;;4.75;2.22;;;15.80;99.90;;;;;;3613475;39;20237;-80
2021/08/02 06:31:49;;;;;;;3.60;1.73;;;15.90;99.90;;;;;;3613416;39;20279;-79
2021/08/02 06:34:16;;;;;;;3.25;1.55;;;16.20;99.90;;;;;;3613402;39;20245;-81
2021/08/02 06:36:44;;;;;;;5.30;1.90;;;16.20;99.90;;;;;;3604591;39;20627;-80
2021/08/02 06:39:11;;;;;;;1.70;1.60;;;16.20;99.90;;;;;;3613045;39;20291;-81
2021/08/02 06:41:38;;;;;;;3.03;2.83;;;16.10;99.90;;;;;;3612747;39;20225;-83
2021/08/02 06:44:06;;;;;;;4.53;2.10;;;16.00;99.90;;;;;;3612089;39;20303;-80
2021/08/02 06:46:33;;;;;;;5.47;1.77;;;16.20;99.90;;;;;;3645251;22;20287;-82
2021/08/02 06:49:00;;;;;;;4.40;1.90;;;16.20;99.90;;;;;;3612803;39;20230;-82
2021/08/02 06:51:27;;;;;;;3.00;1.52;;;16.40;99.90;;;;;;3612710;39;20218;-80
2021/08/02 06:53:56;;;;;;;4.43;2.10;;;16.50;99.90;;;;;;3612566;39;20206;-83
2021/08/02 06:56:23;;;;;;;1.67;1.58;;;16.70;99.90;;;;;;3612918;39;20294;-84
2021/08/02 06:58:50;;;;;;;3.95;1.95;;;16.70;99.90;;;;;;3613315;39;20237;-82
2021/08/02 07:01:18;;;;;;;3.33;1.65;;;16.60;99.90;;;;;;3613178;39;20244;-82
2021/08/02 07:03:45;;;;;;;2.45;1.38;;;16.40;99.90;;;;;;3612674;39;20245;-80
2021/08/02 07:06:12;;;;;;;4.05;1.95;;;16.50;99.90;;;;;;3613095;39;20279;-82
2021/08/02 07:08:39;;;;;;;5.72;1.95;;;16.60;99.90;;;;;;3610755;39;20631;-80
2021/08/02 07:11:08;;;;;;;16.40;14.43;;;16.90;99.90;;;;;;3622677;39;20720;-80
2021/08/02 07:13:35;;;;;;;4.05;2.03;;;16.90;99.90;;;;;;3623271;39;20286;-80
2021/08/02 07:16:03;;;;;;;5.15;3.88;;;17.10;99.90;;;;;;3622891;39;20252;-80
2021/08/02 07:18:32;;;;;;;4.22;1.95;;;17.20;99.90;;;;;;3623247;39;20232;-82
2021/08/02 07:20:59;;;;;;;4.07;1.52;;;17.40;99.90;;;;;;3623406;39;20775;-80
2021/08/02 07:23:26;;;;;;;4.43;1.60;;;17.30;99.90;;;;;;3614598;39;20233;-79
2021/08/02 07:25:53;;;;;;;4.50;1.58;;;17.10;99.90;;;;;;3623225;39;20236;-83
2021/08/02 07:28:22;;;;;;;8.95;1.58;;;17.40;99.90;;;;;;3623189;39;20205;-80
2021/08/02 07:30:49;;;;;;;3.15;1.73;;;17.50;99.90;;;;;;3623265;39;20240;-80
2021/08/02 07:33:17;;;;;;;2.63;1.33;;;17.40;99.90;;;;;;3623204;39;20782;-80
2021/08/02 07:35:44;;;;;;;3.47;1.77;;;17.50;99.90;;;;;;3623208;39;20237;-83
2021/08/02 07:38:12;;;;;;;1.08;1.00;;;17.60;99.90;;;;;;3623208;39;20232;-84
2021/08/02 07:40:39;;;;;;;3.50;1.42;;;17.50;99.90;;;;;;3623212;39;20252;-79
2021/08/02 07:43:06;;;;;;;5.65;1.73;;;17.50;99.90;;;;;;3623407;39;20233;-78
2021/08/02 07:45:36;;;;;;;6.28;1.75;;;17.70;99.90;;;;;;3623012;39;20233;-79
2021/08/02 07:48:03;;;;;;;4.18;1.67;;;17.80;99.90;;;;;;3623105;39;20256;-79
2021/08/02 07:50:30;;;;;;;2.65;1.73;;;17.80;99.90;;;;;;3623015;39;20221;-83
2021/08/02 07:52:57;;;;;;;3.65;1.55;;;17.90;99.90;;;;;;3614334;39;20305;-81
2021/08/02 07:55:24;;;;;;;1.42;1.27;;;17.70;99.90;;;;;;3622946;39;20259;-79
2021/08/02 07:57:52;;;;;;;5.32;1.83;;;17.80;99.90;;;;;;3622995;39;20262;-81
2021/08/02 08:00:19;;;;;;;2.42;1.50;;;17.80;99.90;;;;;;3623169;39;20221;-78
2021/08/02 08:02:47;;;;;;;3.75;1.45;;;17.60;99.90;;;;;;3622703;39;20233;-78
2021/08/02 08:05:16;;;;;;;3.38;1.25;;;17.60;99.90;;;;;;3613946;39;20248;-78
2021/08/02 08:07:45;;;;;;;2.72;1.40;;;17.70;99.90;;;;;;3623041;39;20225;-79
2021/08/02 08:10:13;;;;;;;2.90;1.63;;;18.10;99.90;;;;;;3614226;39;20229;-81
2021/08/02 08:12:40;;;;;;;2.30;1.38;;;18.30;99.90;;;;;;3623075;39;20294;-77
2021/08/02 08:15:08;;;;;;;3.65;2.03;;;18.50;99.90;;;;;;3623046;39;20252;-84
2021/08/02 08:17:36;;;;;;;4.15;1.42;;;18.70;99.90;;;;;;3622910;39;20224;-79
2021/08/02 08:20:07;;;;;;;2.85;0.98;;;18.60;99.90;;;;;;3622993;39;20233;-81
2021/08/02 08:22:34;;;;;;;3.70;1.58;;;18.50;99.90;;;;;;3622870;39;20286;-79
2021/08/02 08:25:01;;;;;;;5.97;1.55;;;18.70;99.90;;;;;;3622926;39;20260;-80
2021/08/02 08:27:29;;;;;;;5.97;1.60;;;18.60;99.90;;;;;;3622691;39;20205;-80
2021/08/02 08:29:56;;;;;;;5.38;1.25;;;18.80;99.90;;;;;;3622716;39;20245;-80
2021/08/02 08:32:23;;;;;;;2.92;0.95;;;19.00;99.90;;;;;;3605575;39;20249;-81
2021/08/02 08:34:50;;;;;;;4.47;1.60;;;19.40;99.90;;;;;;3622722;39;20232;-80
2021/08/02 08:37:18;;;;;;;4.75;1.77;;;19.30;99.90;;;;;;3622605;39;20250;-80
2021/08/02 08:39:46;;;;;;;2.80;1.23;;;19.10;99.90;;;;;;3614066;39;20646;-79
2021/08/02 08:42:16;;;;;;;3.53;1.60;;;19.00;99.90;;;;;;3622679;39;20225;-79
2021/08/02 08:44:44;;;;;;;3.85;1.25;;;18.60;99.90;;;;;;3622549;39;20233;-79
2021/08/02 08:47:12;;;;;;;2.38;1.00;;;18.70;99.90;;;;;;3622689;39;20231;-81
2021/08/02 08:49:40;;;;;;;4.95;1.50;;;19.10;99.90;;;;;;3622895;39;20245;-84
2021/08/02 08:52:08;;;;;;;5.25;1.90;;;19.40;99.90;;;;;;3613937;39;20248;-80
2021/08/02 08:54:37;;;;;;;2.08;1.38;;;19.00;99.90;;;;;;3613917;39;20225;-80
2021/08/02 08:57:09;;;;;;;4.00;1.27;;;18.70;99.90;;;;;;3622544;39;20287;-85
2021/08/02 08:59:46;;;;;;;2.65;1.15;;;18.70;99.90;;;;;;3646922;22;20235;-82
2021/08/02 09:02:13;;;;;;;3.85;1.85;;;18.80;99.90;;;;;;3604233;39;20234;-80
2021/08/02 09:04:41;;;;;;;1.70;1.02;;;19.00;99.90;;;;;;3585264;39;20218;-86
2021/08/02 09:07:10;;;;;;;1.95;1.35;;;19.10;99.90;;;;;;3593545;39;20241;-81
2021/08/02 09:09:39;;;;;;;8.15;1.38;;;18.80;99.90;;;;;;3593671;39;20238;-82
2021/08/02 09:12:13;;;;;;;4.82;1.23;;;18.70;99.90;;;;;;3602179;39;20222;-80
2021/08/02 09:14:50;;;;;;;4.00;1.30;;;18.50;99.90;;;;;;3602173;39;20233;-80
2021/08/02 09:17:27;;;;;;;1.83;0.77;;;18.40;99.90;;;;;;3602770;39;20272;-80
2021/08/02 09:19:55;;;;;;;1.30;0.98;;;18.40;99.90;;;;;;3595180;39;20750;-81
2021/08/02 09:22:27;;;;;;;1.52;1.00;;;18.40;99.90;;;;;;3603618;39;20230;-81
2021/08/02 09:25:12;;;;;;;3.13;1.20;;;18.60;99.90;;;;;;3595181;39;20228;-81
2021/08/02 09:27:40;;;;;;;3.15;0.90;;;18.80;99.90;;;;;;3603669;39;20226;-82
2021/08/02 09:30:19;;;;;;;2.38;1.20;;;18.90;99.90;;;;;;3603732;39;20864;-80
2021/08/02 09:32:55;;;;;;;2.92;1.13;;;19.00;99.90;;;;;;3603575;39;20242;-80
2021/08/02 09:35:30;;;;;;;2.03;1.10;;;18.90;99.90;;;;;;3603616;39;20226;-83
2021/08/02 09:37:58;;;;;;;6.18;1.35;;;19.00;99.90;;;;;;3603594;39;20727;-83
2021/08/02 09:40:28;;;;;;;3.83;1.98;;;19.10;99.90;;;;;;3603614;39;20274;-86
2021/08/02 09:42:57;;;;;;;3.22;1.20;;;19.30;99.90;;;;;;3603668;39;20230;-80
2021/08/02 09:45:24;;;;;;;1.80;1.20;;;19.30;99.90;;;;;;3594521;39;20234;-81
2021/08/02 09:47:52;;;;;;;7.45;1.17;;;19.20;99.90;;;;;;3594313;39;20234;-84
2021/08/02 09:50:29;;;;;;;4.68;1.30;;;18.90;99.90;;;;;;3603494;39;20250;-80
2021/08/02 09:52:57;;;;;;;3.25;1.85;;;19.00;99.90;;;;;;3603494;39;20292;-79
2021/08/02 09:55:24;;;;;;;1.20;0.80;;;18.90;99.90;;;;;;3594860;39;20226;-80
2021/08/02 09:57:55;;;;;;;5.13;1.45;;;18.80;99.90;;;;;;3603472;39;20231;-85
2021/08/02 10:00:23;;;;;;;3.97;0.93;;;18.80;99.90;;;;;;3601968;39;20283;-80
2021/08/02 10:02:52;;;;;;;2.25;1.40;;;18.80;99.90;;;;;;3613576;39;20229;-80
2021/08/02 10:05:20;;;;;;;3.53;1.42;;;18.90;99.90;;;;;;3604714;39;20241;-80
2021/08/02 10:07:47;;;;;;;2.92;1.27;;;19.20;99.90;;;;;;3604782;39;20237;-80
2021/08/02 10:10:17;;;;;;;2.10;1.02;;;19.30;99.90;;;;;;3612991;39;20229;-81
2021/08/02 10:12:47;;;;;;;2.67;1.50;;;19.40;99.90;;;;;;3613442;39;20233;-87
2021/08/02 10:15:18;;;;;;;1.83;1.23;;;19.80;99.90;;;;;;3613501;39;20250;-81
2021/08/02 10:17:48;;;;;;;2.65;1.00;;;20.10;99.90;;;;;;3611937;39;20234;-81
2021/08/02 10:20:27;;;;;;;2.55;1.17;;;19.90;99.90;;;;;;3611963;39;20272;-85
2021/08/02 10:22:55;;;;;;;3.15;1.30;;;19.80;99.90;;;;;;3613477;39;20304;-84
2021/08/02 10:25:34;;;;;;;3.10;1.42;;;19.90;99.90;;;;;;3613396;39;20257;-81
2021/08/02 10:28:12;;;;;;;2.42;1.95;;;19.90;99.90;;;;;;3613232;39;20218;-81
2021/08/02 10:30:41;;;;;;;4.22;1.23;;;19.30;99.90;;;;;;3613489;39;20234;-79
2021/08/02 10:33:10;;;;;;;3.83;1.30;;;19.30;99.90;;;;;;3613440;39;20303;-80
2021/08/02 10:35:39;;;;;;;2.35;1.08;;;19.00;99.90;;;;;;3613383;39;20221;-80
2021/08/02 10:38:08;;;;;;;6.07;1.80;;;19.00;99.90;;;;;;3613165;39;20226;-81
2021/08/02 10:40:46;;;;;;;4.15;1.67;;;19.10;99.90;;;;;;3613393;39;20234;-80
2021/08/02 10:43:13;;;;;;;3.65;1.77;;;19.30;99.90;;;;;;3613335;39;20226;-82
2021/08/02 10:45:47;;;;;;;4.47;1.42;;;19.20;99.90;;;;;;3613297;39;20262;-83
2021/08/02 10:48:23;;;;;;;4.05;1.10;;;19.30;99.90;;;;;;3613233;39;20795;-81
2021/08/02 10:50:50;;;;;;;3.90;1.08;;;19.40;99.90;;;;;;3613358;39;20837;-81
2021/08/02 10:53:18;;;;;;;3.13;1.25;;;19.50;99.90;;;;;;3613317;39;20253;-80
2021/08/02 10:55:47;;;;;;;3.13;1.50;;;19.40;99.90;;;;;;3613234;39;20257;-84
2021/08/02 10:58:25;;;;;;;1.55;1.38;;;19.50;99.90;;;;;;3613067;39;20241;-81
2021/08/02 11:00:57;;;;;;;1.13;0.88;;;19.40;99.90;;;;;;3604462;39;20746;-82
2021/08/02 11:03:32;;;;;;;3.00;1.60;;;19.40;99.90;;;;;;3613227;39;20238;-79
2021/08/02 11:06:05;;;;;;;2.38;1.08;;;19.40;99.90;;;;;;3612901;39;20221;-81
2021/08/02 11:08:35;;;;;;;1.70;1.13;;;19.40;99.90;;;;;;3603896;39;20214;-82
2021/08/02 11:11:04;;;;;;;3.15;2.10;;;19.50;99.90;;;;;;3602368;39;20226;-82
2021/08/02 11:13:32;;;;;;;3.70;1.05;;;19.50;99.90;;;;;;3613174;39;20287;-81
2021/08/02 11:16:01;;;;;;;2.35;0.98;;;19.50;99.90;;;;;;3652830;22;20247;-81
2021/08/02 11:18:29;;;;;;;1.58;1.23;;;19.50;99.90;;;;;;3580879;40;20244;-84
2021/08/02 11:20:57;;;;;;;2.08;1.20;;;19.60;99.90;;;;;;3571249;40;20599;-80
2021/08/02 11:23:32;;;;;;;2.35;1.20;;;20.00;99.90;;;;;;3580155;40;20302;-81
2021/08/02 11:26:16;;;;;;;2.42;1.08;;;20.20;99.90;;;;;;3584923;40;20284;-81
2021/08/02 11:28:48;;;;;;;1.33;0.95;;;20.40;99.90;;;;;;3588059;40;20243;-78
2021/08/02 11:31:18;;;;;;;5.50;1.15;;;20.60;99.90;;;;;;3589804;40;20554;-81
2021/08/02 11:33:46;;;;;;;1.75;1.23;;;21.00;99.90;;;;;;3590700;40;20527;-79
2021/08/02 11:36:18;;;;;;;3.03;1.08;;;20.90;99.90;;;;;;3579966;40;20267;-79
2021/08/02 11:38:47;;;;;;;6.07;1.15;;;20.70;99.90;;;;;;3589185;40;20267;-83
2021/08/02 11:41:27;;;;;;;1.40;0.73;;;20.70;99.90;;;;;;3590164;40;20215;-81
2021/08/02 11:43:58;;;;;;;2.13;0.88;;;20.40;99.90;;;;;;3590039;40;20254;-83
2021/08/02 11:46:27;;;;;;;2.05;0.88;;;20.30;99.90;;;;;;3588563;40;20250;-80
2021/08/02 11:48:55;;;;;;;2.78;1.13;;;20.20;99.90;;;;;;3589785;40;20328;-82
2021/08/02 11:51:25;;;;;;;3.33;1.20;;;20.10;99.90;;;;;;3588430;40;20285;-80
2021/08/02 11:54:00;;;;;;;2.00;0.93;;;20.20;99.90;;;;;;3590222;40;20670;-79
2021/08/02 11:56:36;;;;;;;0.85;0.75;;;20.00;99.90;;;;;;3589362;40;20515;-80
2021/08/02 11:59:06;;;;;;;2.92;1.23;;;19.80;99.90;;;;;;3592601;40;20265;-81
2021/08/02 12:01:45;;;;;;;1.80;1.10;;;19.70;99.90;;;;;;3592503;40;20296;-81
2021/08/02 12:04:12;;;;;;;1.60;1.00;;;19.70;99.90;;;;;;3592364;40;20231;-80
2021/08/02 12:06:48;;;;;;;2.40;0.95;;;19.60;99.90;;;;;;3592414;40;20284;-83
2021/08/02 12:09:15;;;;;;;2.63;1.05;;;19.80;99.90;;;;;;3592154;40;20264;-82
2021/08/02 12:11:45;;;;;;;1.88;1.10;;;19.80;99.90;;;;;;3592468;40;20235;-83
2021/08/02 12:14:24;;;;;;;2.75;1.00;;;19.60;99.90;;;;;;3583787;40;20641;-81
2021/08/02 12:17:04;;;;;;;3.63;1.33;;;19.80;99.90;;;;;;3599573;39;20626;-81
2021/08/02 12:19:42;;;;;;;2.97;1.45;;;20.20;99.90;;;;;;3600845;40;20235;-80
2021/08/02 12:22:09;;;;;;;2.53;1.10;;;20.10;99.90;;;;;;3601520;40;20758;-79
2021/08/02 12:24:36;;;;;;;2.28;1.10;;;20.30;99.90;;;;;;3601059;39;20699;-80
2021/08/02 12:27:04;;;;;;;1.45;1.33;;;20.20;99.90;;;;;;3601263;40;20568;-81
2021/08/02 12:29:31;;;;;;;2.13;1.30;;;20.10;99.90;;;;;;3593032;40;20273;-79
2021/08/02 12:31:59;;;;;;;9.23;1.75;;;20.10;99.90;;;;;;3602084;39;20518;-81
2021/08/02 12:34:30;;;;;;;2.97;1.60;;;20.00;99.90;;;;;;3601993;39;20518;-76
2021/08/02 12:36:59;;;;;;;6.38;1.13;;;20.00;99.90;;;;;;3601066;39;20304;-79
2021/08/02 12:39:29;;;;;;;4.03;1.20;;;20.40;99.90;;;;;;3600857;39;20242;-80
2021/08/02 12:41:56;;;;;;;3.03;1.50;;;20.50;99.90;;;;;;3600888;39;20239;-79
2021/08/02 12:44:23;;;;;;;1.63;1.00;;;21.10;99.90;;;;;;3593824;39;20237;-81
2021/08/02 12:46:51;;;;;;;3.17;1.00;;;21.10;99.90;;;;;;3602473;39;20246;-82
2021/08/02 12:49:18;;;;;;;1.92;1.02;;;21.20;99.90;;;;;;3602349;39;20222;-79
2021/08/02 12:51:47;;;;;;;2.20;1.13;;;21.60;99.90;;;;;;3601621;40;20263;-81
2021/08/02 12:54:17;;;;;;;2.63;1.20;;;22.00;99.90;;;;;;3601895;39;20231;-83
2021/08/02 12:56:45;;;;;;;4.10;1.00;;;21.90;99.90;;;;;;3601398;39;20258;-80
2021/08/02 12:59:12;;;;;;;2.45;1.15;;;22.10;99.90;;;;;;3598853;40;20243;-80